Time;durP1;ratioP1;P1;durP2;ratioP2;P2;SDS_P1;SDS_P2;PMS_P1;PMS_P2;Temp;Humidity;BMP_temperature;BMP_pressure;BME280_temperature;BME280_humidity;BME280_pressure;Samples;Min_cycle;Max_cycle;Signal;HPM_P1;HPM_P2
2022/03/28 00:01:00;;;;;;;18.92;8.77;;;;;;;6.19;58.71;100974.69;4479367;31;33283;-76
2022/03/28 00:03:47;;;;;;;19.12;8.85;;;;;;;6.25;58.28;100970.97;4479418;32;34555;-76
2022/03/28 00:06:33;;;;;;;21.12;8.93;;;;;;;5.90;59.34;100980.19;4466548;32;34947;-75
2022/03/28 00:09:20;;;;;;;18.20;8.73;;;;;;;5.41;60.98;100977.19;4479275;32;34772;-75
2022/03/28 00:12:06;;;;;;;16.87;7.72;;;;;;;5.13;61.79;100965.25;4474409;32;34306;-76
2022/03/28 00:14:53;;;;;;;18.20;7.75;;;;;;;5.96;58.66;100978.41;4471541;31;34261;-75
2022/03/28 00:17:39;;;;;;;20.62;7.55;;;;;;;6.17;57.06;100974.94;4479192;32;34936;-75
2022/03/28 00:20:25;;;;;;;14.38;6.80;;;;;;;6.21;56.93;100969.84;4476854;32;35170;-76
2022/03/28 00:23:11;;;;;;;16.15;7.60;;;;;;;6.10;57.08;100973.47;4477489;32;34921;-75
2022/03/28 00:25:59;;;;;;;19.05;8.98;;;;;;;5.99;57.28;100964.31;4478671;32;34256;-76
2022/03/28 00:28:45;;;;;;;21.30;10.50;;;;;;;5.84;58.21;100965.69;4468014;32;34549;-75
2022/03/28 00:31:32;;;;;;;22.62;9.82;;;;;;;5.76;58.89;100963.38;4479079;31;34787;-76
2022/03/28 00:34:23;;;;;;;18.87;8.50;;;;;;;5.66;58.98;100957.75;4478481;32;34853;-75
2022/03/28 00:37:10;;;;;;;17.15;7.93;;;;;;;5.35;59.45;100951.81;4474841;32;35640;-75
2022/03/28 00:39:56;;;;;;;19.27;7.47;;;;;;;5.18;60.47;100946.34;4481341;32;34479;-76
2022/03/28 00:42:43;;;;;;;15.88;8.25;;;;;;;5.40;59.25;100943.72;4481239;32;34277;-75
2022/03/28 00:45:31;;;;;;;20.70;8.98;;;;;;;5.13;60.04;100938.06;4478721;32;34121;-75
2022/03/28 00:48:17;;;;;;;17.12;8.05;;;;;;;5.32;59.68;100941.44;4480589;32;34454;-75
2022/03/28 00:51:04;;;;;;;18.62;8.40;;;;;;;5.45;59.13;100944.91;4481287;31;34899;-75
2022/03/28 00:53:51;;;;;;;18.98;8.52;;;;;;;5.69;58.26;100935.50;4470666;31;34103;-76
2022/03/28 00:56:37;;;;;;;19.65;8.98;;;;;;;5.16;59.36;100936.78;4476498;32;34803;-76
2022/03/28 00:59:23;;;;;;;24.20;9.23;;;;;;;5.75;57.82;100929.09;4467661;32;35493;-75
2022/03/28 01:02:10;;;;;;;20.92;10.18;;;;;;;5.62;57.91;100932.13;4466334;32;35876;-75
2022/03/28 01:04:58;;;;;;;17.37;9.40;;;;;;;5.43;58.98;100936.97;4470263;32;34356;-75
2022/03/28 01:07:44;;;;;;;22.65;9.88;;;;;;;5.13;59.71;100923.66;4469273;32;34336;-76
2022/03/28 01:10:30;;;;;;;18.40;8.38;;;;;;;5.33;59.13;100924.03;4470250;32;34377;-76
2022/03/28 01:13:17;;;;;;;14.32;7.57;;;;;;;5.45;58.58;100923.16;4481040;32;34826;-76
2022/03/28 01:16:04;;;;;;;16.42;7.37;;;;;;;5.28;58.34;100917.69;4469690;31;34608;-76
2022/03/28 01:18:51;;;;;;;14.23;6.97;;;;;;;5.23;58.47;100912.97;4478372;32;34977;-75
2022/03/28 01:21:38;;;;;;;15.65;7.60;;;;;;;5.29;58.07;100914.72;4480520;32;34647;-75
2022/03/28 01:24:24;;;;;;;13.18;6.12;;;;;;;5.11;58.73;100913.03;4474535;32;35771;-75
2022/03/28 01:27:11;;;;;;;14.45;7.05;;;;;;;5.01;59.46;100903.88;4480624;32;34221;-76
2022/03/28 01:29:57;;;;;;;13.30;6.22;;;;;;;5.35;58.21;100902.88;4474869;32;34253;-76
2022/03/28 01:32:45;;;;;;;13.65;6.82;;;;;;;5.41;57.27;100907.34;4476718;32;34353;-76
2022/03/28 01:35:34;;;;;;;15.43;6.60;;;;;;;5.31;57.31;100907.16;4479281;32;34665;-75
2022/03/28 01:38:21;;;;;;;18.52;6.78;;;;;;;5.31;57.58;100898.19;4480877;32;34520;-75
2022/03/28 01:41:07;;;;;;;16.77;7.10;;;;;;;5.20;57.61;100894.44;4480405;32;34243;-75
2022/03/28 01:43:53;;;;;;;14.48;6.68;;;;;;;5.09;58.10;100896.16;4470401;32;34620;-75
2022/03/28 01:46:44;;;;;;;13.65;6.65;;;;;;;4.87;58.90;100893.31;4480376;31;34964;-76
2022/03/28 01:49:31;;;;;;;15.05;6.55;;;;;;;4.89;58.83;100890.34;4472542;32;34241;-75
2022/03/28 01:52:18;;;;;;;14.43;5.80;;;;;;;5.12;58.33;100881.25;4480283;32;34211;-76
2022/03/28 01:55:05;;;;;;;15.52;6.30;;;;;;;5.17;57.99;100898.47;4457330;32;34575;-75
2022/03/28 01:57:52;;;;;;;13.57;6.32;;;;;;;4.96;58.71;100883.69;4480634;32;34785;-76
2022/03/28 02:00:38;;;;;;;15.07;6.03;;;;;;;4.86;58.98;100882.69;4468065;32;35722;-75
2022/03/28 02:03:25;;;;;;;14.57;5.90;;;;;;;4.89;58.61;100880.28;4476829;32;35007;-75
2022/03/28 02:06:11;;;;;;;15.55;6.20;;;;;;;4.95;58.22;100881.22;4479948;32;35256;-76
2022/03/28 02:08:58;;;;;;;12.15;5.93;;;;;;;5.10;58.06;100883.41;4449499;32;34896;-75
2022/03/28 02:11:45;;;;;;;13.20;5.35;;;;;;;5.21;57.65;100884.41;4480740;32;34722;-76
2022/03/28 02:14:31;;;;;;;14.93;6.05;;;;;;;5.13;57.01;100889.16;4481666;31;35549;-75
2022/03/28 02:17:18;;;;;;;12.70;5.25;;;;;;;5.02;56.95;100873.75;4481155;32;35926;-75
2022/03/28 02:20:08;;;;;;;12.77;5.30;;;;;;;4.83;56.99;100875.03;4481244;32;34967;-75
2022/03/28 02:22:55;;;;;;;9.90;4.37;;;;;;;5.00;56.59;100878.59;4481171;32;34648;-75
2022/03/28 02:25:41;;;;;;;13.20;5.53;;;;;;;5.06;55.81;100876.81;4479924;32;35157;-75
2022/03/28 02:28:28;;;;;;;13.25;4.93;;;;;;;4.85;56.24;100872.91;4474391;31;35195;-75
2022/03/28 02:31:14;;;;;;;11.38;4.95;;;;;;;4.96;56.33;100872.84;4457253;32;34967;-75
2022/03/28 02:34:01;;;;;;;10.85;4.18;;;;;;;5.05;55.63;100875.16;4476947;32;35432;-75
2022/03/28 02:36:47;;;;;;;13.20;4.95;;;;;;;5.05;55.75;100867.84;4480790;31;33914;-75
2022/03/28 02:39:33;;;;;;;9.60;4.43;;;;;;;5.03;55.58;100871.84;4480432;32;35593;-75
2022/03/28 02:42:22;;;;;;;13.48;4.95;;;;;;;5.01;56.07;100869.41;4480806;32;35671;-75
2022/03/28 02:45:09;;;;;;;12.90;5.90;;;;;;;4.96;56.50;100872.00;4475486;32;34375;-75
2022/03/28 02:47:55;;;;;;;13.68;6.32;;;;;;;4.97;56.82;100869.03;4459832;32;34759;-76
2022/03/28 02:50:41;;;;;;;14.65;5.72;;;;;;;4.90;56.99;100867.56;4479754;31;34200;-75
2022/03/28 02:53:28;;;;;;;12.30;5.18;;;;;;;4.87;57.22;100862.62;4480578;32;34880;-75
2022/03/28 02:56:14;;;;;;;12.25;5.90;;;;;;;4.71;57.25;100864.22;4456656;32;34912;-75
2022/03/28 02:59:01;;;;;;;13.27;5.70;;;;;;;4.66;57.78;100858.66;4474802;32;34032;-75
2022/03/28 03:01:48;;;;;;;10.75;5.22;;;;;;;4.73;57.78;100867.50;4478984;32;35625;-75
2022/03/28 03:04:35;;;;;;;12.05;4.93;;;;;;;4.48;58.30;100868.66;4473659;31;35876;-75
2022/03/28 03:07:21;;;;;;;15.50;5.50;;;;;;;3.64;60.89;100870.03;4480548;32;34212;-75
2022/03/28 03:10:08;;;;;;;12.43;5.37;;;;;;;3.99;60.16;100868.16;4467270;32;34211;-76
2022/03/28 03:12:55;;;;;;;14.25;6.25;;;;;;;4.21;59.61;100864.81;4469569;31;34696;-75
2022/03/28 03:15:41;;;;;;;11.68;5.32;;;;;;;4.68;58.26;100857.37;4477439;32;34581;-75
2022/03/28 03:18:28;;;;;;;12.95;5.03;;;;;;;4.78;57.55;100864.91;4480184;32;34650;-75
2022/03/28 03:21:14;;;;;;;12.40;5.35;;;;;;;4.61;57.75;100862.12;4479926;31;35101;-75
2022/03/28 03:24:00;;;;;;;14.75;5.35;;;;;;;4.42;58.05;100861.47;4479976;32;35628;-75
2022/03/28 03:26:46;;;;;;;10.10;4.62;;;;;;;4.48;58.31;100865.94;4479990;31;34612;-75
2022/03/28 03:29:34;;;;;;;10.82;4.78;;;;;;;4.45;58.60;100863.69;4469180;32;34259;-75
2022/03/28 03:32:20;;;;;;;8.73;3.80;;;;;;;4.54;57.45;100855.19;4480077;32;34209;-75
2022/03/28 03:35:07;;;;;;;10.57;4.62;;;;;;;4.52;57.04;100860.84;4479321;32;34253;-75
2022/03/28 03:37:53;;;;;;;11.35;4.20;;;;;;;4.34;57.40;100858.31;4471614;32;34971;-76
2022/03/28 03:40:39;;;;;;;8.75;3.97;;;;;;;4.44;57.71;100862.06;4474681;31;35458;-75
2022/03/28 03:43:26;;;;;;;8.20;3.67;;;;;;;4.55;57.15;100851.41;4479857;32;34042;-75
2022/03/28 03:46:13;;;;;;;15.07;4.12;;;;;;;4.32;57.41;100844.97;4475300;32;34298;-75
2022/03/28 03:48:59;;;;;;;7.15;3.40;;;;;;;4.42;57.48;100850.63;4479817;32;36620;-75
2022/03/28 03:51:45;;;;;;;8.13;3.40;;;;;;;4.54;56.43;100842.44;4474040;32;34428;-75
2022/03/28 03:54:32;;;;;;;10.00;3.90;;;;;;;4.57;55.25;100847.37;4470135;32;33879;-75
2022/03/28 03:57:22;;;;;;;10.27;4.10;;;;;;;4.42;56.16;100849.81;4478547;32;34684;-75
2022/03/28 04:00:09;;;;;;;11.07;4.30;;;;;;;3.92;57.82;100834.91;4479118;31;34731;-75
2022/03/28 04:02:57;;;;;;;11.23;3.87;;;;;;;4.01;57.85;100838.06;4472297;32;35325;-75
2022/03/28 04:05:44;;;;;;;10.88;4.22;;;;;;;4.33;57.26;100845.81;4466877;32;34084;-75
2022/03/28 04:08:29;;;;;;;9.13;4.10;;;;;;;4.36;56.90;100853.47;4479918;32;34509;-75
2022/03/28 04:11:16;;;;;;;11.07;4.28;;;;;;;4.24;57.53;100850.75;4475961;32;35609;-75
2022/03/28 04:14:03;;;;;;;8.30;3.92;;;;;;;4.24;57.71;100845.34;4480136;31;34186;-75
2022/03/28 04:16:49;;;;;;;10.98;4.97;;;;;;;4.38;57.57;100843.19;4458384;32;34040;-75
2022/03/28 04:19:35;;;;;;;11.05;4.78;;;;;;;4.29;57.17;100845.44;4479442;31;35221;-75
2022/03/28 04:22:22;;;;;;;10.98;4.57;;;;;;;4.21;57.91;100848.53;4468871;31;35286;-75
2022/03/28 04:25:09;;;;;;;12.32;5.32;;;;;;;4.10;58.25;100844.81;4481307;32;34286;-76
2022/03/28 04:27:56;;;;;;;10.02;3.95;;;;;;;4.10;58.64;100843.94;4480448;32;33739;-76
2022/03/28 04:30:42;;;;;;;11.43;4.53;;;;;;;4.26;57.64;100837.78;4479208;32;34327;-76
2022/03/28 04:33:28;;;;;;;11.85;4.68;;;;;;;4.24;57.41;100843.47;4469066;32;34949;-76
2022/03/28 04:36:15;;;;;;;12.07;4.80;;;;;;;3.96;58.78;100838.81;4481814;32;34629;-75
2022/03/28 04:39:01;;;;;;;12.35;4.45;;;;;;;4.20;57.68;100828.72;4482439;31;33995;-75
2022/03/28 04:41:48;;;;;;;11.45;4.35;;;;;;;4.04;57.71;100838.44;4481581;32;34751;-75
2022/03/28 04:44:34;;;;;;;11.32;4.60;;;;;;;3.78;58.90;100836.22;4481718;32;34694;-75
2022/03/28 04:47:20;;;;;;;13.27;4.20;;;;;;;3.67;59.69;100829.75;4469795;32;34436;-75
2022/03/28 04:50:08;;;;;;;14.48;4.35;;;;;;;3.99;58.83;100830.19;4480612;31;35283;-75
2022/03/28 04:52:54;;;;;;;11.98;4.97;;;;;;;3.95;58.40;100836.31;4477221;32;34587;-75
2022/03/28 04:55:40;;;;;;;12.07;5.03;;;;;;;3.91;58.86;100833.25;4468551;32;34479;-75
2022/03/28 04:58:27;;;;;;;13.30;4.75;;;;;;;3.38;60.93;100836.91;4480995;31;34583;-75
2022/03/28 05:01:13;;;;;;;12.07;4.93;;;;;;;3.67;60.50;100834.31;4474895;32;34565;-75
2022/03/28 05:03:59;;;;;;;12.68;5.28;;;;;;;3.93;59.13;100835.75;4467327;31;35613;-75
2022/03/28 05:06:46;;;;;;;13.43;5.60;;;;;;;4.03;58.46;100841.38;4480637;31;34750;-75
2022/03/28 05:09:32;;;;;;;14.63;5.75;;;;;;;3.98;58.52;100839.38;4481336;32;34195;-75
2022/03/28 05:12:21;;;;;;;17.25;7.97;;;;;;;3.85;59.30;100850.47;4467268;31;32952;-77
2022/03/28 05:15:08;;;;;;;18.37;8.18;;;;;;;3.38;60.95;100845.03;4470200;32;35550;-79
2022/03/28 05:17:54;;;;;;;23.95;8.40;;;;;;;3.88;60.22;100839.16;4479913;32;34763;-78
2022/03/28 05:20:41;;;;;;;17.12;8.15;;;;;;;4.16;58.96;100838.41;4480985;32;34091;-78
2022/03/28 05:23:27;;;;;;;15.07;6.78;;;;;;;4.17;58.25;100842.78;4480972;32;35086;-78
2022/03/28 05:26:13;;;;;;;17.98;7.12;;;;;;;4.22;58.37;100834.75;4480639;31;35147;-79
2022/03/28 05:29:00;;;;;;;14.68;5.43;;;;;;;4.25;58.59;100838.88;4477682;32;35880;-78
2022/03/28 05:31:46;;;;;;;13.20;3.95;;;;;;;4.10;58.48;100836.66;4479811;32;34643;-79
2022/03/28 05:34:32;;;;;;;14.73;4.75;;;;;;;4.22;57.67;100836.63;4481105;32;34065;-79
2022/03/28 05:37:18;;;;;;;10.88;4.72;;;;;;;3.04;59.93;100838.50;4480003;32;34287;-79
2022/03/28 05:40:05;;;;;;;18.77;4.80;;;;;;;3.04;61.92;100839.31;4463834;32;34893;-79
2022/03/28 05:42:51;;;;;;;15.55;4.62;;;;;;;2.73;63.09;100836.87;4475359;32;35513;-78
2022/03/28 05:45:37;;;;;;;11.60;4.95;;;;;;;2.52;64.35;100836.31;4459099;32;34343;-79
2022/03/28 05:48:24;;;;;;;10.88;4.65;;;;;;;2.84;63.19;100844.22;4480697;31;35554;-78
2022/03/28 05:51:10;;;;;;;15.30;4.40;;;;;;;2.38;64.51;100845.66;4477495;32;35166;-77
2022/03/28 05:53:56;;;;;;;17.08;5.37;;;;;;;3.63;61.17;100841.28;4480910;32;34173;-77
2022/03/28 05:56:43;;;;;;;15.00;4.87;;;;;;;4.34;58.96;100842.84;4480907;32;34754;-77
2022/03/28 05:59:29;;;;;;;18.75;5.53;;;;;;;4.63;57.97;100834.72;4481068;32;34336;-78
2022/03/28 06:02:15;;;;;;;21.08;5.35;;;;;;;4.59;57.62;100833.56;4482039;31;34555;-77
2022/03/28 06:05:02;;;;;;;15.88;5.60;;;;;;;4.79;57.00;100838.56;4475133;32;35456;-78
2022/03/28 06:07:48;;;;;;;17.87;4.80;;;;;;;4.72;57.66;100836.84;4456549;32;33864;-77
2022/03/28 06:10:34;;;;;;;14.15;5.32;;;;;;;5.40;56.37;100840.44;4480062;32;34695;-76
2022/03/28 06:13:20;;;;;;;21.90;7.00;;;;;;;4.53;56.45;100829.13;4480215;31;36235;-78
2022/03/28 06:16:06;;;;;;;13.02;4.90;;;;;;;5.14;55.45;100835.66;4480117;32;35297;-77
2022/03/28 06:18:57;;;;;;;12.90;5.37;;;;;;;4.61;56.86;100828.72;4480905;32;33858;-76
2022/03/28 06:21:43;;;;;;;20.95;5.75;;;;;;;5.05;55.25;100835.22;4479235;32;34632;-77
2022/03/28 06:24:30;;;;;;;10.25;4.87;;;;;;;5.05;56.13;100828.97;4478002;32;34895;-77
2022/03/28 06:27:17;;;;;;;15.63;5.85;;;;;;;5.83;54.20;100830.78;4480401;31;35209;-78
2022/03/28 06:30:03;;;;;;;18.67;6.62;;;;;;;5.18;55.28;100828.69;4480296;32;33840;-77
2022/03/28 06:32:49;;;;;;;14.65;5.82;;;;;;;4.95;56.42;100825.03;4480142;32;35558;-77
2022/03/28 06:35:36;;;;;;;12.10;5.30;;;;;;;5.75;54.87;100820.31;4479961;32;35913;-77
2022/03/28 06:38:22;;;;;;;17.25;5.87;;;;;;;5.75;53.60;100814.88;4467255;32;34903;-78
2022/03/28 06:41:09;;;;;;;23.27;6.35;;;;;;;5.67;53.95;100811.75;4456266;32;34380;-78
2022/03/28 06:43:56;;;;;;;15.65;6.28;;;;;;;6.06;51.90;100815.31;4469864;32;35486;-76
2022/03/28 06:46:43;;;;;;;20.20;6.20;;;;;;;6.34;50.30;100816.22;4479604;31;34801;-77
2022/03/28 06:49:29;;;;;;;15.43;6.00;;;;;;;6.86;48.62;100823.84;4476792;32;34631;-77
2022/03/28 06:52:16;;;;;;;13.52;5.45;;;;;;;6.96;47.41;100810.34;4478352;31;35043;-75
2022/03/28 06:55:03;;;;;;;18.25;5.55;;;;;;;7.36;45.29;100812.59;4479301;31;34650;-76
2022/03/28 06:57:51;;;;;;;18.42;4.80;;;;;;;7.99;45.22;100809.97;4473148;32;35900;-76
2022/03/28 07:00:38;;;;;;;11.98;4.10;;;;;;;8.52;41.37;100808.06;4477618;31;34622;-77
2022/03/28 07:03:24;;;;;;;11.65;3.97;;;;;;;8.75;39.09;100811.41;4479143;32;34167;-76
2022/03/28 07:06:10;;;;;;;11.10;4.05;;;;;;;9.16;37.78;100798.63;4477897;31;35830;-80
2022/03/28 07:08:56;;;;;;;10.88;4.50;;;;;;;9.34;37.70;100801.88;4479104;32;34569;-79
2022/03/28 07:11:43;;;;;;;12.27;4.00;;;;;;;9.69;36.39;100798.28;4477687;31;35031;-80
2022/03/28 07:14:30;;;;;;;9.75;4.22;;;;;;;9.78;36.78;100798.53;4479281;32;33040;-81
2022/03/28 07:17:16;;;;;;;11.12;4.03;;;;;;;9.91;35.79;100795.22;4478981;32;35201;-80
2022/03/28 07:20:03;;;;;;;13.07;5.55;;;;;;;9.89;36.24;100794.66;4479969;31;34610;-77
2022/03/28 07:22:50;;;;;;;16.45;4.35;;;;;;;9.73;36.77;100788.41;4478677;31;34687;-80
2022/03/28 07:25:36;;;;;;;12.55;4.65;;;;;;;10.35;34.96;100784.38;4480259;31;33672;-80
2022/03/28 07:28:23;;;;;;;15.45;4.75;;;;;;;10.80;35.72;100781.66;4479748;32;34369;-78
2022/03/28 07:31:09;;;;;;;13.50;4.82;;;;;;;10.40;35.30;100774.50;4478437;31;35041;-78
2022/03/28 07:37:03;;;;;;;10.68;4.90;;;;;;;11.01;33.61;100780.44;4474314;31;34975;-77
2022/03/28 07:39:49;;;;;;;10.52;4.60;;;;;;;11.33;34.63;100778.25;4467697;32;33574;-78
2022/03/28 07:42:37;;;;;;;12.32;5.07;;;;;;;11.71;33.78;100777.31;4473658;32;35032;-77
2022/03/28 07:45:23;;;;;;;14.25;3.80;;;;;;;11.58;31.95;100777.97;4465145;31;34683;-79
2022/03/28 07:48:10;;;;;;;14.80;3.97;;;;;;;11.82;30.80;100771.72;4476034;32;32905;-77
2022/03/28 07:50:57;;;;;;;11.45;4.28;;;;;;;11.79;31.06;100772.31;4478531;31;35014;-79
2022/03/28 07:53:43;;;;;;;13.98;4.30;;;;;;;12.25;30.10;100766.28;4477499;32;34980;-79
2022/03/28 07:56:31;;;;;;;8.15;4.22;;;;;;;12.29;30.35;100765.38;4478711;31;35583;-79
2022/03/28 07:59:17;;;;;;;12.48;4.62;;;;;;;12.51;29.97;100767.56;4470435;32;33920;-79
2022/03/28 08:02:04;;;;;;;14.35;4.50;;;;;;;12.41;30.23;100767.72;4479514;32;34681;-77
2022/03/28 08:04:51;;;;;;;12.27;5.32;;;;;;;13.04;30.78;100767.34;4464708;32;34642;-77
2022/03/28 08:07:38;;;;;;;13.60;4.78;;;;;;;13.32;28.88;100770.22;4470419;32;34275;-77
2022/03/28 08:10:25;;;;;;;15.85;6.25;;;;;;;12.99;30.02;100763.84;4477535;32;34922;-77
2022/03/28 08:13:11;;;;;;;11.63;4.68;;;;;;;13.24;30.08;100762.63;4477515;32;34709;-79
2022/03/28 08:15:58;;;;;;;10.93;4.40;;;;;;;13.62;30.68;100755.06;4477574;32;34804;-79
2022/03/28 08:18:44;;;;;;;12.35;4.60;;;;;;;13.86;30.54;100754.91;4476303;32;34594;-79
2022/03/28 08:21:30;;;;;;;11.07;5.03;;;;;;;13.72;31.73;100759.59;4456197;32;35013;-79
2022/03/28 08:24:16;;;;;;;12.68;5.32;;;;;;;13.99;31.20;100755.19;4479067;32;34455;-79
2022/03/28 08:27:03;;;;;;;12.75;5.22;;;;;;;13.91;30.29;100745.69;4470461;32;35739;-78
2022/03/28 08:29:49;;;;;;;12.90;4.97;;;;;;;14.10;31.35;100751.09;4473519;32;35394;-79
2022/03/28 08:32:36;;;;;;;11.82;5.20;;;;;;;13.50;32.85;100739.03;4472718;32;34259;-80
2022/03/28 08:35:24;;;;;;;13.95;4.60;;;;;;;13.95;32.70;100744.78;4478432;32;34765;-78
2022/03/28 08:38:11;;;;;;;12.43;5.18;;;;;;;14.39;32.63;100740.53;4460825;32;34589;-78
2022/03/28 08:40:57;;;;;;;14.05;5.15;;;;;;;14.83;32.36;100727.16;4479921;32;35233;-76
2022/03/28 08:43:44;;;;;;;10.32;5.03;;;;;;;14.43;33.07;100732.47;4472110;32;35023;-76
2022/03/28 08:46:30;;;;;;;14.13;6.28;;;;;;;14.75;32.97;100722.41;4459730;32;34583;-76
2022/03/28 08:49:18;;;;;;;12.65;5.87;;;;;;;15.00;32.50;100734.75;4437086;32;34569;-76
2022/03/28 08:52:05;;;;;;;17.75;6.97;;;;;;;15.10;33.02;100723.44;4446430;32;34685;-77
2022/03/28 08:54:51;;;;;;;13.30;5.22;;;;;;;14.91;33.44;100720.06;4439183;32;34213;-78
2022/03/28 08:57:37;;;;;;;15.90;5.82;;;;;;;15.63;32.29;100730.91;4429577;32;35496;-77
2022/03/28 09:00:24;;;;;;;16.75;5.70;;;;;;;15.61;32.73;100716.56;4450961;32;36052;-76
2022/03/28 09:03:11;;;;;;;13.02;5.40;;;;;;;15.96;31.14;100719.50;4452740;32;34161;-76
2022/03/28 09:05:57;;;;;;;13.90;5.70;;;;;;;15.55;32.53;100709.56;4448994;32;34260;-75
2022/03/28 09:08:43;;;;;;;10.43;5.55;;;;;;;16.07;32.14;100707.00;4440459;32;178620;-75
2022/03/28 09:11:31;;;;;;;13.75;5.87;;;;;;;15.74;31.84;100709.34;4447319;32;34940;-77
2022/03/28 09:14:35;;;;;;;9.25;5.03;;;;;;;15.03;33.71;100723.09;4443335;32;34604;-75
2022/03/28 09:17:21;;;;;;;11.55;5.55;;;;;;;15.83;32.46;100706.62;4439992;32;34739;-75
2022/03/28 09:20:08;;;;;;;12.52;5.50;;;;;;;15.99;32.62;100702.25;4443398;32;35614;-76
2022/03/28 09:22:55;;;;;;;14.60;5.53;;;;;;;15.59;33.00;100693.97;4425776;32;35928;-76
2022/03/28 09:25:51;;;;;;;14.95;5.60;;;;;;;16.25;31.74;100693.19;4445522;32;34918;-77
2022/03/28 09:28:37;;;;;;;11.20;5.43;;;;;;;16.69;31.72;100700.38;4439971;32;35211;-77
2022/03/28 09:31:30;;;;;;;12.98;5.60;;;;;;;16.28;31.67;100689.78;4448530;32;34486;-76
2022/03/28 09:34:18;;;;;;;11.60;5.10;;;;;;;16.76;30.65;100680.50;4425735;32;36330;-76
2022/03/28 09:37:04;;;;;;;14.52;5.93;;;;;;;17.57;30.56;100688.00;4426142;32;34574;-75
2022/03/28 09:39:51;;;;;;;10.32;5.18;;;;;;;17.14;29.66;100674.31;4446285;32;34082;-75
2022/03/28 09:42:48;;;;;;;10.73;4.90;;;;;;;18.02;30.02;100675.59;4447262;32;34207;-77
2022/03/28 09:45:37;;;;;;;12.30;5.50;;;;;;;17.50;31.08;100680.22;4436635;32;35723;-77
2022/03/28 09:48:26;;;;;;;11.93;5.32;;;;;;;17.22;31.20;100659.62;4469227;32;34267;-77
2022/03/28 09:51:16;;;;;;;13.75;5.00;;;;;;;17.05;33.01;100658.53;4460567;32;35116;-78
2022/03/28 09:54:02;;;;;;;10.38;5.22;;;;;;;18.59;30.62;100658.34;4468210;32;35367;-77
2022/03/28 09:57:09;;;;;;;14.93;5.75;;;;;;;19.39;29.43;100646.87;4451001;32;34992;-75
2022/03/28 10:00:10;;;;;;;12.75;4.90;;;;;;;17.28;32.83;100644.44;4451302;32;34488;-75
2022/03/28 10:02:58;;;;;;;10.50;5.25;;;;;;;18.49;31.91;100636.53;4451512;32;33717;-73
2022/03/28 10:05:45;;;;;;;11.75;5.20;;;;;;;19.29;30.33;100633.44;4448856;32;35610;-75
2022/03/28 10:08:33;;;;;;;11.25;4.65;;;;;;;17.82;32.96;100628.06;4446922;32;34880;-75
2022/03/28 10:11:19;;;;;;;10.95;5.00;;;;;;;18.37;32.30;100627.00;4448062;32;34566;-76
2022/03/28 10:14:06;;;;;;;8.63;4.65;;;;;;;19.39;30.15;100624.66;4450692;32;33940;-76
2022/03/28 10:16:52;;;;;;;13.40;5.50;;;;;;;19.84;30.05;100625.72;4465061;32;34336;-75
2022/03/28 10:19:39;;;;;;;12.48;4.55;;;;;;;19.07;30.29;100616.06;4454208;32;35047;-77
2022/03/28 10:22:41;;;;;;;10.27;5.37;;;;;;;20.80;28.32;100609.03;4468409;32;34922;-76
2022/03/28 10:25:28;;;;;;;9.43;5.62;;;;;;;21.36;27.30;100605.31;4454371;32;33087;-76
2022/03/28 10:28:18;;;;;;;9.85;5.12;;;;;;;21.73;27.39;100593.88;4465286;32;34604;-76
2022/03/28 10:31:13;;;;;;;9.90;5.45;;;;;;;21.17;28.00;100592.09;4451138;32;31815;-75
2022/03/28 10:34:52;;;;;;;9.85;5.28;;;;;;;21.63;27.11;100598.03;4458109;32;34409;-76
2022/03/28 10:37:47;;;;;;;10.30;5.68;;;;;;;21.21;27.51;100587.44;4454484;32;33803;-76
2022/03/28 10:40:35;;;;;;;10.48;4.95;;;;;;;21.73;26.65;100572.37;4464614;32;35290;-76
2022/03/28 10:43:27;;;;;;;10.98;5.32;;;;;;;21.25;27.63;100568.81;4447927;32;36004;-76
2022/03/28 10:46:14;;;;;;;10.05;5.45;;;;;;;19.46;30.55;100568.47;4459636;32;35152;-76
2022/03/28 10:49:01;;;;;;;12.10;4.78;;;;;;;20.22;30.13;100552.94;4466991;32;33817;-76
2022/03/28 10:51:48;;;;;;;7.22;4.60;;;;;;;20.30;29.40;100559.53;4470202;32;33671;-76
2022/03/28 10:54:38;;;;;;;13.45;5.18;;;;;;;21.49;28.72;100551.12;4464157;32;35697;-76
2022/03/28 10:57:26;;;;;;;11.12;4.90;;;;;;;22.21;26.64;100538.75;4454607;32;35205;-76
2022/03/28 11:00:13;;;;;;;8.50;5.43;;;;;;;21.74;27.32;100539.69;4450757;32;33920;-75
2022/03/28 11:03:03;;;;;;;9.75;4.00;;;;;;;22.27;26.74;100528.87;4457762;32;35536;-75
2022/03/28 11:05:53;;;;;;;8.97;5.00;;;;;;;22.55;27.03;100525.84;4458760;32;34704;-76
2022/03/28 11:08:43;;;;;;;7.53;4.20;;;;;;;21.85;27.78;100520.41;4459361;32;34749;-76
2022/03/28 11:11:32;;;;;;;10.97;4.73;;;;;;;21.09;28.73;100517.88;4459181;32;32971;-80
2022/03/28 11:14:19;;;;;;;6.87;4.28;;;;;;;21.08;29.44;100513.44;4446502;32;35519;-75
2022/03/28 11:17:22;;;;;;;9.88;4.32;;;;;;;20.14;30.47;100501.03;4452251;32;36546;-76
2022/03/28 11:20:18;;;;;;;8.88;3.90;;;;;;;21.06;29.04;100499.91;4451599;32;34507;-79
2022/03/28 11:23:09;;;;;;;11.18;4.65;;;;;;;21.78;28.26;100493.19;4454771;32;34414;-78
2022/03/28 11:25:56;;;;;;;8.70;4.53;;;;;;;20.26;30.24;100494.59;4451452;32;34575;-79
2022/03/28 11:28:43;;;;;;;12.30;4.18;;;;;;;20.84;30.06;100484.63;4445091;32;35588;-78
2022/03/28 11:31:29;;;;;;;6.97;3.97;;;;;;;22.09;27.35;100461.53;4454879;32;35485;-78
2022/03/28 11:34:16;;;;;;;10.50;4.62;;;;;;;21.77;28.18;100460.87;4466329;32;34793;-78
2022/03/28 11:37:03;;;;;;;7.53;4.53;;;;;;;21.61;28.51;100458.16;4459768;32;34550;-78
2022/03/28 11:40:08;;;;;;;9.70;4.75;;;;;;;21.36;28.48;100443.63;4460392;32;35005;-77
2022/03/28 11:42:56;;;;;;;12.32;4.93;;;;;;;21.41;28.30;100437.81;4450521;32;33485;-76
2022/03/28 11:45:48;;;;;;;8.57;5.45;;;;;;;21.10;29.65;100445.06;4470982;32;33847;-78
2022/03/28 11:48:34;;;;;;;10.35;5.43;;;;;;;19.82;30.88;100436.97;4439527;32;35585;-77
2022/03/28 11:51:22;;;;;;;8.02;4.85;;;;;;;21.21;29.81;100433.34;4462738;32;34898;-78
2022/03/28 11:54:11;;;;;;;9.48;5.00;;;;;;;20.19;30.63;100417.31;4449984;32;34576;-77
2022/03/28 12:00:13;;;;;;;9.95;5.20;;;;;;;20.63;30.10;100397.75;4464883;32;35274;-76
2022/03/28 12:03:00;;;;;;;11.25;5.45;;;;;;;20.73;29.74;100388.06;4449349;32;36025;-78
2022/03/28 12:05:47;;;;;;;11.45;5.55;;;;;;;20.96;29.23;100383.44;4460777;32;34242;-78
2022/03/28 12:08:33;;;;;;;14.20;6.22;;;;;;;21.14;29.39;100366.31;4452056;32;35138;-78
2022/03/28 12:11:20;;;;;;;9.38;5.78;;;;;;;20.59;30.21;100364.28;4459274;32;35531;-78
2022/03/28 12:14:06;;;;;;;12.45;5.60;;;;;;;19.89;30.74;100372.37;4469153;32;34602;-79
2022/03/28 12:16:55;;;;;;;9.18;5.10;;;;;;;20.94;29.99;100359.91;4468059;32;36258;-78
2022/03/28 12:19:41;;;;;;;11.02;5.60;;;;;;;20.37;29.93;100360.13;4463939;32;33943;-78
2022/03/28 12:22:28;;;;;;;15.43;6.28;;;;;;;20.93;29.30;100342.37;4463772;32;35361;-78
2022/03/28 12:25:48;;;;;;;11.52;6.10;;;;;;;21.95;27.39;100336.50;4464502;32;34049;-78
2022/03/28 12:28:38;;;;;;;14.38;5.43;;;;;;;22.71;26.60;100330.16;4450561;32;35677;-79
2022/03/28 12:31:24;;;;;;;13.65;5.30;;;;;;;21.82;28.24;100318.31;4452877;32;34156;-78
2022/03/28 12:34:11;;;;;;;10.07;5.32;;;;;;;21.91;27.89;100318.87;4451047;32;35253;-77
2022/03/28 12:36:58;;;;;;;9.13;4.90;;;;;;;22.19;27.51;100315.00;4464857;32;35056;-77
2022/03/28 12:39:45;;;;;;;12.07;5.30;;;;;;;22.79;26.89;100312.34;4473573;32;34714;-79
2022/03/28 12:42:32;;;;;;;11.00;5.72;;;;;;;21.04;28.94;100306.41;4447388;32;34738;-80
2022/03/28 12:45:18;;;;;;;10.75;5.32;;;;;;;21.20;28.62;100297.97;4441968;32;35335;-78
2022/03/28 12:48:07;;;;;;;11.80;5.20;;;;;;;21.11;28.27;100296.19;4465039;32;34957;-76
2022/03/28 12:51:05;;;;;;;10.10;5.93;;;;;;;22.70;27.12;100281.09;4458757;32;35578;-76
2022/03/28 12:54:00;;;;;;;10.40;5.28;;;;;;;22.29;26.64;100268.91;4478942;32;34774;-75
2022/03/28 12:56:56;;;;;;;11.77;5.30;;;;;;;22.57;27.09;100266.56;4452169;32;35581;-77
2022/03/28 12:59:50;;;;;;;9.65;5.30;;;;;;;22.84;26.47;100250.53;4459887;32;35993;-78
2022/03/28 13:02:48;;;;;;;10.07;5.12;;;;;;;22.88;26.69;100243.03;4449147;32;34328;-77